sensor_id;sensor_type;location;lat;lon;timestamp;temperature;humidity
66568;DHT22;53422;49.296;6.900;2024-02-23T00:01:51;7.10;99.90
66568;DHT22;53422;49.296;6.900;2024-02-23T00:04:17;7.10;99.90
66568;DHT22;53422;49.296;6.900;2024-02-23T00:06:44;7.10;99.90
66568;DHT22;53422;49.296;6.900;2024-02-23T00:09:10;7.10;99.90
66568;DHT22;53422;49.296;6.900;2024-02-23T00:11:41;7.10;99.90
66568;DHT22;53422;49.296;6.900;2024-02-23T00:14:11;7.00;99.90
66568;DHT22;53422;49.296;6.900;2024-02-23T00:16:39;7.10;99.90
66568;DHT22;53422;49.296;6.900;2024-02-23T00:19:07;6.90;99.90
66568;DHT22;53422;49.296;6.900;2024-02-23T00:21:33;6.80;99.90
66568;DHT22;53422;49.296;6.900;2024-02-23T00:23:59;6.80;99.90
66568;DHT22;53422;49.296;6.900;2024-02-23T00:26:25;6.80;99.90
66568;DHT22;53422;49.296;6.900;2024-02-23T00:28:50;6.90;99.90
66568;DHT22;53422;49.296;6.900;2024-02-23T00:31:16;6.80;99.90
66568;DHT22;53422;49.296;6.900;2024-02-23T00:33:41;6.70;99.90
66568;DHT22;53422;49.296;6.900;2024-02-23T00:36:07;6.70;99.90
66568;DHT22;53422;49.296;6.900;2024-02-23T00:38:33;6.70;99.90
66568;DHT22;53422;49.296;6.900;2024-02-23T00:40:59;6.60;99.90
66568;DHT22;53422;49.296;6.900;2024-02-23T00:43:25;6.60;99.90
66568;DHT22;53422;49.296;6.900;2024-02-23T00:45:50;6.60;99.90
66568;DHT22;53422;49.296;6.900;2024-02-23T00:48:16;6.50;99.90
66568;DHT22;53422;49.296;6.900;2024-02-23T00:50:42;6.50;99.90
66568;DHT22;53422;49.296;6.900;2024-02-23T00:53:07;6.50;99.90
66568;DHT22;53422;49.296;6.900;2024-02-23T00:55:33;6.50;99.90
66568;DHT22;53422;49.296;6.900;2024-02-23T00:57:58;6.60;99.90
66568;DHT22;53422;49.296;6.900;2024-02-23T01:00:24;6.50;99.90
66568;DHT22;53422;49.296;6.900;2024-02-23T01:02:53;6.50;99.90
66568;DHT22;53422;49.296;6.900;2024-02-23T01:05:27;6.50;99.90
66568;DHT22;53422;49.296;6.900;2024-02-23T01:07:57;6.50;99.90
66568;DHT22;53422;49.296;6.900;2024-02-23T01:10:23;6.40;99.90
66568;DHT22;53422;49.296;6.900;2024-02-23T01:12:49;6.40;99.90
66568;DHT22;53422;49.296;6.900;2024-02-23T01:15:15;6.40;99.90
66568;DHT22;53422;49.296;6.900;2024-02-23T01:17:40;6.40;99.90
66568;DHT22;53422;49.296;6.900;2024-02-23T01:20:06;6.40;99.90
66568;DHT22;53422;49.296;6.900;2024-02-23T01:22:32;6.30;99.90
66568;DHT22;53422;49.296;6.900;2024-02-23T01:24:58;6.30;99.90
66568;DHT22;53422;49.296;6.900;2024-02-23T01:27:23;6.20;99.90
66568;DHT22;53422;49.296;6.900;2024-02-23T01:29:49;6.20;99.90
66568;DHT22;53422;49.296;6.900;2024-02-23T01:32:15;6.30;99.90
66568;DHT22;53422;49.296;6.900;2024-02-23T01:34:40;6.10;99.90
66568;DHT22;53422;49.296;6.900;2024-02-23T01:37:06;6.00;99.90
66568;DHT22;53422;49.296;6.900;2024-02-23T01:39:40;6.10;99.90
66568;DHT22;53422;49.296;6.900;2024-02-23T01:42:14;6.00;99.90
66568;DHT22;53422;49.296;6.900;2024-02-23T01:44:50;6.00;99.90
66568;DHT22;53422;49.296;6.900;2024-02-23T01:47:16;6.00;99.90
66568;DHT22;53422;49.296;6.900;2024-02-23T01:49:41;6.10;99.90
66568;DHT22;53422;49.296;6.900;2024-02-23T01:52:08;6.20;99.90
66568;DHT22;53422;49.296;6.900;2024-02-23T01:54:33;6.10;99.90
66568;DHT22;53422;49.296;6.900;2024-02-23T01:57:00;6.20;99.90
66568;DHT22;53422;49.296;6.900;2024-02-23T01:59:27;6.20;99.90
66568;DHT22;53422;49.296;6.900;2024-02-23T02:01:53;6.30;99.90
66568;DHT22;53422;49.296;6.900;2024-02-23T02:04:19;6.10;99.90
66568;DHT22;53422;49.296;6.900;2024-02-23T02:06:48;6.20;99.90
66568;DHT22;53422;49.296;6.900;2024-02-23T02:09:14;6.30;99.90
66568;DHT22;53422;49.296;6.900;2024-02-23T02:11:48;6.30;99.90
66568;DHT22;53422;49.296;6.900;2024-02-23T02:14:14;6.30;99.90
66568;DHT22;53422;49.296;6.900;2024-02-23T02:16:40;6.40;99.90
66568;DHT22;53422;49.296;6.900;2024-02-23T02:19:06;6.30;99.90
66568;DHT22;53422;49.296;6.900;2024-02-23T02:21:33;6.30;99.90
66568;DHT22;53422;49.296;6.900;2024-02-23T02:23:59;6.30;99.90
66568;DHT22;53422;49.296;6.900;2024-02-23T02:26:25;6.30;99.90
66568;DHT22;53422;49.296;6.900;2024-02-23T02:28:50;6.30;99.90
66568;DHT22;53422;49.296;6.900;2024-02-23T02:31:16;6.30;99.90
66568;DHT22;53422;49.296;6.900;2024-02-23T02:33:42;6.20;99.90
66568;DHT22;53422;49.296;6.900;2024-02-23T02:36:07;6.20;99.90
66568;DHT22;53422;49.296;6.900;2024-02-23T02:38:33;6.20;99.90
66568;DHT22;53422;49.296;6.900;2024-02-23T02:40:59;6.20;99.90
66568;DHT22;53422;49.296;6.900;2024-02-23T02:43:28;6.20;99.90
66568;DHT22;53422;49.296;6.900;2024-02-23T02:45:53;6.10;99.90
66568;DHT22;53422;49.296;6.900;2024-02-23T02:48:19;6.20;99.90
66568;DHT22;53422;49.296;6.900;2024-02-23T02:50:45;6.20;99.90
66568;DHT22;53422;49.296;6.900;2024-02-23T02:53:14;6.10;99.90
66568;DHT22;53422;49.296;6.900;2024-02-23T02:55:41;6.00;99.90
66568;DHT22;53422;49.296;6.900;2024-02-23T02:58:08;6.10;99.90
66568;DHT22;53422;49.296;6.900;2024-02-23T03:00:33;6.10;99.90
66568;DHT22;53422;49.296;6.900;2024-02-23T03:02:59;6.10;99.90
66568;DHT22;53422;49.296;6.900;2024-02-23T03:05:25;6.10;99.90
66568;DHT22;53422;49.296;6.900;2024-02-23T03:07:51;6.10;99.90
66568;DHT22;53422;49.296;6.900;2024-02-23T03:10:16;6.00;99.90
66568;DHT22;53422;49.296;6.900;2024-02-23T03:12:42;6.00;99.90
66568;DHT22;53422;49.296;6.900;2024-02-23T03:15:08;6.10;99.90
66568;DHT22;53422;49.296;6.900;2024-02-23T03:17:35;6.10;99.90
66568;DHT22;53422;49.296;6.900;2024-02-23T03:20:02;6.00;99.90
66568;DHT22;53422;49.296;6.900;2024-02-23T03:22:31;6.00;99.90
66568;DHT22;53422;49.296;6.900;2024-02-23T03:24:56;6.00;99.90
66568;DHT22;53422;49.296;6.900;2024-02-23T03:27:28;6.00;99.90
66568;DHT22;53422;49.296;6.900;2024-02-23T03:29:54;6.00;99.90
66568;DHT22;53422;49.296;6.900;2024-02-23T03:32:20;5.90;99.90
66568;DHT22;53422;49.296;6.900;2024-02-23T03:34:45;5.90;99.90
66568;DHT22;53422;49.296;6.900;2024-02-23T03:37:11;6.00;99.90
66568;DHT22;53422;49.296;6.900;2024-02-23T03:39:37;6.00;99.90
66568;DHT22;53422;49.296;6.900;2024-02-23T03:42:03;6.10;99.90
66568;DHT22;53422;49.296;6.900;2024-02-23T03:44:29;5.90;99.90
66568;DHT22;53422;49.296;6.900;2024-02-23T03:46:55;6.00;99.90
66568;DHT22;53422;49.296;6.900;2024-02-23T03:49:20;6.00;99.90
66568;DHT22;53422;49.296;6.900;2024-02-23T03:51:46;6.00;99.90
66568;DHT22;53422;49.296;6.900;2024-02-23T03:54:12;5.90;99.90
66568;DHT22;53422;49.296;6.900;2024-02-23T03:56:41;5.90;99.90
66568;DHT22;53422;49.296;6.900;2024-02-23T03:59:07;5.90;99.90
66568;DHT22;53422;49.296;6.900;2024-02-23T04:01:38;6.10;99.90
66568;DHT22;53422;49.296;6.900;2024-02-23T04:04:07;6.10;99.90
66568;DHT22;53422;49.296;6.900;2024-02-23T04:06:33;6.00;99.90
66568;DHT22;53422;49.296;6.900;2024-02-23T04:08:59;6.10;99.90
66568;DHT22;53422;49.296;6.900;2024-02-23T04:11:25;6.00;99.90
66568;DHT22;53422;49.296;6.900;2024-02-23T04:13:50;6.00;99.90
66568;DHT22;53422;49.296;6.900;2024-02-23T04:16:16;5.90;99.90
66568;DHT22;53422;49.296;6.900;2024-02-23T04:18:42;5.80;99.90
66568;DHT22;53422;49.296;6.900;2024-02-23T04:21:07;5.70;99.90
66568;DHT22;53422;49.296;6.900;2024-02-23T04:23:33;5.80;99.90
66568;DHT22;53422;49.296;6.900;2024-02-23T04:25:59;5.80;99.90
66568;DHT22;53422;49.296;6.900;2024-02-23T04:28:24;5.80;99.90
66568;DHT22;53422;49.296;6.900;2024-02-23T04:30:52;5.80;99.90
66568;DHT22;53422;49.296;6.900;2024-02-23T04:33:17;5.90;99.90
66568;DHT22;53422;49.296;6.900;2024-02-23T04:35:43;6.00;99.90
66568;DHT22;53422;49.296;6.900;2024-02-23T04:38:09;6.00;99.90
66568;DHT22;53422;49.296;6.900;2024-02-23T04:40:34;6.00;99.90
66568;DHT22;53422;49.296;6.900;2024-02-23T04:43:01;5.80;99.90
66568;DHT22;53422;49.296;6.900;2024-02-23T04:45:26;5.70;99.90
66568;DHT22;53422;49.296;6.900;2024-02-23T04:47:52;5.90;99.90
66568;DHT22;53422;49.296;6.900;2024-02-23T04:50:18;6.00;99.90
66568;DHT22;53422;49.296;6.900;2024-02-23T04:52:43;6.00;99.90
66568;DHT22;53422;49.296;6.900;2024-02-23T04:55:09;5.90;99.90
66568;DHT22;53422;49.296;6.900;2024-02-23T04:57:37;5.80;99.90
66568;DHT22;53422;49.296;6.900;2024-02-23T05:00:04;5.90;99.90
66568;DHT22;53422;49.296;6.900;2024-02-23T05:02:30;5.80;99.90
66568;DHT22;53422;49.296;6.900;2024-02-23T05:05:03;5.80;99.90
66568;DHT22;53422;49.296;6.900;2024-02-23T05:07:35;5.70;99.90
66568;DHT22;53422;49.296;6.900;2024-02-23T05:10:01;5.80;99.90
66568;DHT22;53422;49.296;6.900;2024-02-23T05:12:27;5.90;99.90
66568;DHT22;53422;49.296;6.900;2024-02-23T05:14:53;5.70;99.90
66568;DHT22;53422;49.296;6.900;2024-02-23T05:17:18;5.90;99.90
66568;DHT22;53422;49.296;6.900;2024-02-23T05:19:44;5.90;99.90
66568;DHT22;53422;49.296;6.900;2024-02-23T05:22:12;5.90;99.90
66568;DHT22;53422;49.296;6.900;2024-02-23T05:24:37;5.80;99.90
66568;DHT22;53422;49.296;6.900;2024-02-23T05:27:03;5.90;99.90
66568;DHT22;53422;49.296;6.900;2024-02-23T05:29:29;5.90;99.90
66568;DHT22;53422;49.296;6.900;2024-02-23T05:31:55;5.70;99.90
66568;DHT22;53422;49.296;6.900;2024-02-23T05:34:20;5.60;99.90
66568;DHT22;53422;49.296;6.900;2024-02-23T05:36:47;5.60;99.90
66568;DHT22;53422;49.296;6.900;2024-02-23T05:39:15;5.70;99.90
66568;DHT22;53422;49.296;6.900;2024-02-23T05:41:42;5.90;99.90
66568;DHT22;53422;49.296;6.900;2024-02-23T05:44:08;5.70;99.90
66568;DHT22;53422;49.296;6.900;2024-02-23T05:46:34;5.70;99.90
66568;DHT22;53422;49.296;6.900;2024-02-23T05:49:01;5.70;99.90
66568;DHT22;53422;49.296;6.900;2024-02-23T05:51:28;5.70;99.90
66568;DHT22;53422;49.296;6.900;2024-02-23T05:53:57;5.70;99.90
66568;DHT22;53422;49.296;6.900;2024-02-23T05:56:24;5.70;99.90
66568;DHT22;53422;49.296;6.900;2024-02-23T05:58:50;5.80;99.90
66568;DHT22;53422;49.296;6.900;2024-02-23T06:01:17;5.80;99.90
66568;DHT22;53422;49.296;6.900;2024-02-23T06:03:43;5.80;99.90
66568;DHT22;53422;49.296;6.900;2024-02-23T06:06:10;5.70;99.90
66568;DHT22;53422;49.296;6.900;2024-02-23T06:08:36;5.70;99.90
66568;DHT22;53422;49.296;6.900;2024-02-23T06:11:02;5.70;99.90
66568;DHT22;53422;49.296;6.900;2024-02-23T06:13:32;5.60;99.90
66568;DHT22;53422;49.296;6.900;2024-02-23T06:15:58;5.50;99.90
66568;DHT22;53422;49.296;6.900;2024-02-23T06:18:24;5.50;99.90
66568;DHT22;53422;49.296;6.900;2024-02-23T06:20:50;5.60;99.90
66568;DHT22;53422;49.296;6.900;2024-02-23T06:23:16;5.60;99.90
66568;DHT22;53422;49.296;6.900;2024-02-23T06:25:42;5.60;99.90
66568;DHT22;53422;49.296;6.900;2024-02-23T06:28:07;5.60;99.90
66568;DHT22;53422;49.296;6.900;2024-02-23T06:30:33;5.60;99.90
66568;DHT22;53422;49.296;6.900;2024-02-23T06:32:59;5.60;99.90
66568;DHT22;53422;49.296;6.900;2024-02-23T06:35:24;5.60;99.90
66568;DHT22;53422;49.296;6.900;2024-02-23T06:37:50;5.60;99.90
66568;DHT22;53422;49.296;6.900;2024-02-23T06:40:16;5.60;99.90
66568;DHT22;53422;49.296;6.900;2024-02-23T06:42:41;5.60;99.90
66568;DHT22;53422;49.296;6.900;2024-02-23T06:45:07;5.50;99.90
66568;DHT22;53422;49.296;6.900;2024-02-23T06:47:33;5.30;99.90
66568;DHT22;53422;49.296;6.900;2024-02-23T06:49:59;5.40;99.90
66568;DHT22;53422;49.296;6.900;2024-02-23T06:52:25;5.40;99.90
66568;DHT22;53422;49.296;6.900;2024-02-23T06:54:52;5.50;99.90
66568;DHT22;53422;49.296;6.900;2024-02-23T06:57:17;5.40;99.90
66568;DHT22;53422;49.296;6.900;2024-02-23T06:59:44;5.50;99.90
66568;DHT22;53422;49.296;6.900;2024-02-23T07:02:10;5.40;99.90
66568;DHT22;53422;49.296;6.900;2024-02-23T07:04:35;5.40;99.90
66568;DHT22;53422;49.296;6.900;2024-02-23T07:07:01;5.40;99.90
66568;DHT22;53422;49.296;6.900;2024-02-23T07:09:33;5.30;99.90
66568;DHT22;53422;49.296;6.900;2024-02-23T07:11:59;5.30;99.90
66568;DHT22;53422;49.296;6.900;2024-02-23T07:14:25;5.40;99.90
66568;DHT22;53422;49.296;6.900;2024-02-23T07:16:51;5.40;99.90
66568;DHT22;53422;49.296;6.900;2024-02-23T07:19:19;5.50;99.90
66568;DHT22;53422;49.296;6.900;2024-02-23T07:21:48;5.50;99.90
66568;DHT22;53422;49.296;6.900;2024-02-23T07:24:13;5.40;99.90
66568;DHT22;53422;49.296;6.900;2024-02-23T07:26:39;5.30;99.90
66568;DHT22;53422;49.296;6.900;2024-02-23T07:29:05;5.20;99.90
66568;DHT22;53422;49.296;6.900;2024-02-23T07:31:31;5.30;99.90
66568;DHT22;53422;49.296;6.900;2024-02-23T07:33:57;5.30;99.90
66568;DHT22;53422;49.296;6.900;2024-02-23T07:36:23;5.30;99.90
66568;DHT22;53422;49.296;6.900;2024-02-23T07:38:48;5.30;99.90
66568;DHT22;53422;49.296;6.900;2024-02-23T07:41:15;5.30;99.90
66568;DHT22;53422;49.296;6.900;2024-02-23T07:43:40;5.20;99.90
66568;DHT22;53422;49.296;6.900;2024-02-23T07:46:06;5.30;99.90
66568;DHT22;53422;49.296;6.900;2024-02-23T07:48:35;5.40;99.90
66568;DHT22;53422;49.296;6.900;2024-02-23T07:51:02;5.40;99.90
66568;DHT22;53422;49.296;6.900;2024-02-23T07:53:28;5.40;99.90
66568;DHT22;53422;49.296;6.900;2024-02-23T07:55:54;5.40;99.90
66568;DHT22;53422;49.296;6.900;2024-02-23T07:58:19;5.40;99.90
66568;DHT22;53422;49.296;6.900;2024-02-23T08:00:46;5.40;99.90
66568;DHT22;53422;49.296;6.900;2024-02-23T08:03:12;5.50;99.90
66568;DHT22;53422;49.296;6.900;2024-02-23T08:05:38;5.60;99.90
66568;DHT22;53422;49.296;6.900;2024-02-23T08:08:04;5.50;99.90
66568;DHT22;53422;49.296;6.900;2024-02-23T08:10:31;5.50;99.90
66568;DHT22;53422;49.296;6.900;2024-02-23T08:12:57;5.40;99.90
66568;DHT22;53422;49.296;6.900;2024-02-23T08:15:22;5.50;99.90
66568;DHT22;53422;49.296;6.900;2024-02-23T08:17:48;5.50;99.90
66568;DHT22;53422;49.296;6.900;2024-02-23T08:20:15;5.50;99.90
66568;DHT22;53422;49.296;6.900;2024-02-23T08:22:40;5.60;99.90
66568;DHT22;53422;49.296;6.900;2024-02-23T08:25:06;5.60;99.90
66568;DHT22;53422;49.296;6.900;2024-02-23T08:27:33;5.60;99.90
66568;DHT22;53422;49.296;6.900;2024-02-23T08:29:59;5.60;99.90
66568;DHT22;53422;49.296;6.900;2024-02-23T08:32:24;5.60;99.90
66568;DHT22;53422;49.296;6.900;2024-02-23T08:34:50;5.70;99.90
66568;DHT22;53422;49.296;6.900;2024-02-23T08:37:18;5.70;99.90
66568;DHT22;53422;49.296;6.900;2024-02-23T08:39:44;5.80;99.90
66568;DHT22;53422;49.296;6.900;2024-02-23T08:42:13;5.70;99.90
66568;DHT22;53422;49.296;6.900;2024-02-23T08:44:39;5.70;99.90
66568;DHT22;53422;49.296;6.900;2024-02-23T08:47:06;5.70;99.90
66568;DHT22;53422;49.296;6.900;2024-02-23T08:49:32;5.70;99.90
66568;DHT22;53422;49.296;6.900;2024-02-23T08:51:57;5.80;99.90
66568;DHT22;53422;49.296;6.900;2024-02-23T08:54:24;5.80;99.90
66568;DHT22;53422;49.296;6.900;2024-02-23T08:56:49;5.80;99.90
66568;DHT22;53422;49.296;6.900;2024-02-23T08:59:15;5.80;99.90
66568;DHT22;53422;49.296;6.900;2024-02-23T09:01:41;5.80;99.90
66568;DHT22;53422;49.296;6.900;2024-02-23T09:04:06;5.90;99.90
66568;DHT22;53422;49.296;6.900;2024-02-23T09:06:32;5.80;99.90
66568;DHT22;53422;49.296;6.900;2024-02-23T09:08:58;5.80;99.90
66568;DHT22;53422;49.296;6.900;2024-02-23T09:11:24;5.80;99.90
66568;DHT22;53422;49.296;6.900;2024-02-23T09:13:49;5.80;99.90
66568;DHT22;53422;49.296;6.900;2024-02-23T09:16:15;5.80;99.90
66568;DHT22;53422;49.296;6.900;2024-02-23T09:18:41;5.90;99.90
66568;DHT22;53422;49.296;6.900;2024-02-23T09:21:07;5.90;99.90
66568;DHT22;53422;49.296;6.900;2024-02-23T09:23:32;5.90;99.90
66568;DHT22;53422;49.296;6.900;2024-02-23T09:25:59;5.90;99.90
66568;DHT22;53422;49.296;6.900;2024-02-23T09:28:25;6.00;99.90
66568;DHT22;53422;49.296;6.900;2024-02-23T09:30:50;6.00;99.90
66568;DHT22;53422;49.296;6.900;2024-02-23T09:33:16;6.00;99.90
66568;DHT22;53422;49.296;6.900;2024-02-23T09:35:42;6.00;99.90
66568;DHT22;53422;49.296;6.900;2024-02-23T09:38:07;6.00;99.90
66568;DHT22;53422;49.296;6.900;2024-02-23T09:40:33;6.00;99.90
66568;DHT22;53422;49.296;6.900;2024-02-23T09:42:59;6.00;99.90
66568;DHT22;53422;49.296;6.900;2024-02-23T09:45:25;6.00;99.90
66568;DHT22;53422;49.296;6.900;2024-02-23T09:47:56;6.10;99.90
66568;DHT22;53422;49.296;6.900;2024-02-23T09:50:23;6.10;99.90
66568;DHT22;53422;49.296;6.900;2024-02-23T09:52:50;6.10;99.90
66568;DHT22;53422;49.296;6.900;2024-02-23T09:55:18;6.10;99.90
66568;DHT22;53422;49.296;6.900;2024-02-23T09:57:45;6.20;99.90
66568;DHT22;53422;49.296;6.900;2024-02-23T10:00:13;6.20;99.90
66568;DHT22;53422;49.296;6.900;2024-02-23T10:02:41;6.20;99.90
66568;DHT22;53422;49.296;6.900;2024-02-23T10:05:07;6.30;99.90
66568;DHT22;53422;49.296;6.900;2024-02-23T10:07:33;6.30;99.90
66568;DHT22;53422;49.296;6.900;2024-02-23T10:10:00;6.30;99.90
66568;DHT22;53422;49.296;6.900;2024-02-23T10:12:26;6.30;99.90
66568;DHT22;53422;49.296;6.900;2024-02-23T10:14:52;6.40;99.90
66568;DHT22;53422;49.296;6.900;2024-02-23T10:17:20;6.40;99.90
66568;DHT22;53422;49.296;6.900;2024-02-23T10:19:46;6.50;99.90
66568;DHT22;53422;49.296;6.900;2024-02-23T10:22:11;6.50;99.90
66568;DHT22;53422;49.296;6.900;2024-02-23T10:24:37;6.60;99.90
66568;DHT22;53422;49.296;6.900;2024-02-23T10:27:03;6.60;99.90
66568;DHT22;53422;49.296;6.900;2024-02-23T10:29:29;6.60;99.90
66568;DHT22;53422;49.296;6.900;2024-02-23T10:31:57;6.60;99.90
66568;DHT22;53422;49.296;6.900;2024-02-23T10:34:24;6.70;99.90
66568;DHT22;53422;49.296;6.900;2024-02-23T10:36:50;6.70;99.90
66568;DHT22;53422;49.296;6.900;2024-02-23T10:39:18;6.70;99.90
66568;DHT22;53422;49.296;6.900;2024-02-23T10:42:00;6.70;99.90
66568;DHT22;53422;49.296;6.900;2024-02-23T10:44:28;6.80;99.90
66568;DHT22;53422;49.296;6.900;2024-02-23T10:46:56;6.80;99.90
66568;DHT22;53422;49.296;6.900;2024-02-23T10:49:23;6.90;99.90
66568;DHT22;53422;49.296;6.900;2024-02-23T10:51:52;6.90;99.90
66568;DHT22;53422;49.296;6.900;2024-02-23T10:54:21;6.90;99.90
66568;DHT22;53422;49.296;6.900;2024-02-23T10:56:49;6.90;99.90
66568;DHT22;53422;49.296;6.900;2024-02-23T10:59:17;7.00;99.90
66568;DHT22;53422;49.296;6.900;2024-02-23T11:01:51;7.00;99.90
66568;DHT22;53422;49.296;6.900;2024-02-23T11:04:19;7.00;99.90
66568;DHT22;53422;49.296;6.900;2024-02-23T11:06:52;7.00;99.90
66568;DHT22;53422;49.296;6.900;2024-02-23T11:09:21;7.00;99.90
66568;DHT22;53422;49.296;6.900;2024-02-23T11:11:57;7.00;99.90
66568;DHT22;53422;49.296;6.900;2024-02-23T11:14:34;7.10;99.90
66568;DHT22;53422;49.296;6.900;2024-02-23T11:17:00;7.10;99.90
66568;DHT22;53422;49.296;6.900;2024-02-23T11:19:37;7.10;99.90
66568;DHT22;53422;49.296;6.900;2024-02-23T11:22:03;7.20;99.90
66568;DHT22;53422;49.296;6.900;2024-02-23T11:24:31;7.20;99.90
66568;DHT22;53422;49.296;6.900;2024-02-23T11:27:00;7.20;99.90
66568;DHT22;53422;49.296;6.900;2024-02-23T11:29:34;7.30;99.90
66568;DHT22;53422;49.296;6.900;2024-02-23T11:32:02;7.30;99.90
66568;DHT22;53422;49.296;6.900;2024-02-23T11:34:30;7.30;99.90
66568;DHT22;53422;49.296;6.900;2024-02-23T11:36:56;7.40;99.90
66568;DHT22;53422;49.296;6.900;2024-02-23T11:39:23;7.40;99.90
66568;DHT22;53422;49.296;6.900;2024-02-23T11:41:49;7.40;99.90
66568;DHT22;53422;49.296;6.900;2024-02-23T11:44:16;7.40;99.90
66568;DHT22;53422;49.296;6.900;2024-02-23T11:46:44;7.50;99.90
66568;DHT22;53422;49.296;6.900;2024-02-23T11:49:12;7.50;99.90
66568;DHT22;53422;49.296;6.900;2024-02-23T11:51:38;7.50;99.90
66568;DHT22;53422;49.296;6.900;2024-02-23T11:54:03;7.50;99.90
66568;DHT22;53422;49.296;6.900;2024-02-23T11:56:29;7.50;99.90
66568;DHT22;53422;49.296;6.900;2024-02-23T11:58:55;7.60;99.90
66568;DHT22;53422;49.296;6.900;2024-02-23T12:01:22;7.50;99.90
66568;DHT22;53422;49.296;6.900;2024-02-23T12:03:47;7.60;99.90
66568;DHT22;53422;49.296;6.900;2024-02-23T12:06:14;7.60;99.90
66568;DHT22;53422;49.296;6.900;2024-02-23T12:08:43;7.60;99.90
66568;DHT22;53422;49.296;6.900;2024-02-23T12:11:11;7.60;99.90
66568;DHT22;53422;49.296;6.900;2024-02-23T12:13:37;7.60;99.90
66568;DHT22;53422;49.296;6.900;2024-02-23T12:16:04;7.70;99.90
66568;DHT22;53422;49.296;6.900;2024-02-23T12:18:33;7.70;99.90
66568;DHT22;53422;49.296;6.900;2024-02-23T12:20:59;7.70;99.90
66568;DHT22;53422;49.296;6.900;2024-02-23T12:23:25;7.70;99.90
66568;DHT22;53422;49.296;6.900;2024-02-23T12:25:56;7.70;99.90
66568;DHT22;53422;49.296;6.900;2024-02-23T12:28:23;7.70;99.90
66568;DHT22;53422;49.296;6.900;2024-02-23T12:31:02;7.80;99.90
66568;DHT22;53422;49.296;6.900;2024-02-23T12:33:29;7.80;99.90
66568;DHT22;53422;49.296;6.900;2024-02-23T12:35:56;7.80;99.90
66568;DHT22;53422;49.296;6.900;2024-02-23T12:38:23;7.80;99.90
66568;DHT22;53422;49.296;6.900;2024-02-23T12:40:49;7.90;99.90
66568;DHT22;53422;49.296;6.900;2024-02-23T12:43:14;7.90;99.90
66568;DHT22;53422;49.296;6.900;2024-02-23T12:45:40;7.90;99.90
66568;DHT22;53422;49.296;6.900;2024-02-23T12:48:06;8.00;99.90
66568;DHT22;53422;49.296;6.900;2024-02-23T12:50:32;8.00;99.90
66568;DHT22;53422;49.296;6.900;2024-02-23T12:52:57;8.00;99.90
66568;DHT22;53422;49.296;6.900;2024-02-23T12:55:23;8.00;99.90
66568;DHT22;53422;49.296;6.900;2024-02-23T12:57:49;8.00;99.90
66568;DHT22;53422;49.296;6.900;2024-02-23T13:00:15;8.00;99.90
66568;DHT22;53422;49.296;6.900;2024-02-23T13:02:41;8.00;99.90
66568;DHT22;53422;49.296;6.900;2024-02-23T13:05:07;8.00;99.90
66568;DHT22;53422;49.296;6.900;2024-02-23T13:07:32;8.00;99.90
66568;DHT22;53422;49.296;6.900;2024-02-23T13:09:58;8.00;99.90
66568;DHT22;53422;49.296;6.900;2024-02-23T13:12:24;8.00;99.90
66568;DHT22;53422;49.296;6.900;2024-02-23T13:14:52;8.00;99.90
66568;DHT22;53422;49.296;6.900;2024-02-23T13:17:18;8.00;99.90
66568;DHT22;53422;49.296;6.900;2024-02-23T13:19:44;8.00;99.90
66568;DHT22;53422;49.296;6.900;2024-02-23T13:22:09;8.00;99.90
66568;DHT22;53422;49.296;6.900;2024-02-23T13:24:35;8.10;99.90
66568;DHT22;53422;49.296;6.900;2024-02-23T13:27:01;8.00;99.90
66568;DHT22;53422;49.296;6.900;2024-02-23T13:29:27;8.10;99.90
66568;DHT22;53422;49.296;6.900;2024-02-23T13:31:52;8.10;99.90
66568;DHT22;53422;49.296;6.900;2024-02-23T13:34:19;8.10;99.90
66568;DHT22;53422;49.296;6.900;2024-02-23T13:36:44;8.10;99.90
66568;DHT22;53422;49.296;6.900;2024-02-23T13:39:10;8.10;99.90
66568;DHT22;53422;49.296;6.900;2024-02-23T13:41:36;8.10;99.90
66568;DHT22;53422;49.296;6.900;2024-02-23T13:44:01;8.10;99.90
66568;DHT22;53422;49.296;6.900;2024-02-23T13:46:27;8.00;99.90
66568;DHT22;53422;49.296;6.900;2024-02-23T13:49:03;8.00;99.90
66568;DHT22;53422;49.296;6.900;2024-02-23T13:51:30;7.90;99.90
66568;DHT22;53422;49.296;6.900;2024-02-23T13:53:55;7.90;99.90
66568;DHT22;53422;49.296;6.900;2024-02-23T13:56:21;7.90;99.90
66568;DHT22;53422;49.296;6.900;2024-02-23T13:58:47;7.90;99.90
66568;DHT22;53422;49.296;6.900;2024-02-23T14:01:14;7.90;99.90
66568;DHT22;53422;49.296;6.900;2024-02-23T14:03:40;7.90;99.90
66568;DHT22;53422;49.296;6.900;2024-02-23T14:06:06;7.90;99.90
66568;DHT22;53422;49.296;6.900;2024-02-23T14:08:32;7.90;99.90
66568;DHT22;53422;49.296;6.900;2024-02-23T14:11:00;7.80;99.90
66568;DHT22;53422;49.296;6.900;2024-02-23T14:13:26;7.80;99.90
66568;DHT22;53422;49.296;6.900;2024-02-23T14:15:52;7.80;99.90
66568;DHT22;53422;49.296;6.900;2024-02-23T14:18:18;7.80;99.90
66568;DHT22;53422;49.296;6.900;2024-02-23T14:20:43;7.80;99.90
66568;DHT22;53422;49.296;6.900;2024-02-23T14:23:09;7.80;99.90
66568;DHT22;53422;49.296;6.900;2024-02-23T14:25:34;7.80;99.90
66568;DHT22;53422;49.296;6.900;2024-02-23T14:28:00;7.80;99.90
66568;DHT22;53422;49.296;6.900;2024-02-23T14:30:26;7.80;99.90
66568;DHT22;53422;49.296;6.900;2024-02-23T14:32:52;7.80;99.90
66568;DHT22;53422;49.296;6.900;2024-02-23T14:35:17;7.80;99.90
66568;DHT22;53422;49.296;6.900;2024-02-23T14:37:43;7.80;99.90
66568;DHT22;53422;49.296;6.900;2024-02-23T14:40:09;7.70;99.90
66568;DHT22;53422;49.296;6.900;2024-02-23T14:42:36;7.70;99.90
66568;DHT22;53422;49.296;6.900;2024-02-23T14:45:03;7.70;99.90
66568;DHT22;53422;49.296;6.900;2024-02-23T14:47:29;7.70;99.90
66568;DHT22;53422;49.296;6.900;2024-02-23T14:49:55;7.60;99.90
66568;DHT22;53422;49.296;6.900;2024-02-23T14:52:21;7.60;99.90
66568;DHT22;53422;49.296;6.900;2024-02-23T14:54:46;7.60;99.90
66568;DHT22;53422;49.296;6.900;2024-02-23T14:57:12;7.60;99.90
66568;DHT22;53422;49.296;6.900;2024-02-23T14:59:38;7.60;99.90
66568;DHT22;53422;49.296;6.900;2024-02-23T15:02:16;7.60;99.90
66568;DHT22;53422;49.296;6.900;2024-02-23T15:04:44;7.60;99.90
66568;DHT22;53422;49.296;6.900;2024-02-23T15:07:09;7.60;99.90
66568;DHT22;53422;49.296;6.900;2024-02-23T15:09:35;7.60;99.90
66568;DHT22;53422;49.296;6.900;2024-02-23T15:12:01;7.60;99.90
66568;DHT22;53422;49.296;6.900;2024-02-23T15:14:26;7.60;99.90
66568;DHT22;53422;49.296;6.900;2024-02-23T15:16:52;7.60;99.90
66568;DHT22;53422;49.296;6.900;2024-02-23T15:19:18;7.60;99.90
66568;DHT22;53422;49.296;6.900;2024-02-23T15:21:43;7.60;99.90
66568;DHT22;53422;49.296;6.900;2024-02-23T15:24:10;7.60;99.90
66568;DHT22;53422;49.296;6.900;2024-02-23T15:26:36;7.60;99.90
66568;DHT22;53422;49.296;6.900;2024-02-23T15:29:01;7.60;99.90
66568;DHT22;53422;49.296;6.900;2024-02-23T15:31:29;7.60;99.90
66568;DHT22;53422;49.296;6.900;2024-02-23T15:33:55;7.60;99.90
66568;DHT22;53422;49.296;6.900;2024-02-23T15:36:22;7.60;99.90
66568;DHT22;53422;49.296;6.900;2024-02-23T15:38:48;7.60;99.90
66568;DHT22;53422;49.296;6.900;2024-02-23T15:41:13;7.50;99.90